Time,TemperatureF,DewpointF,PressureIn,WindDirection,WindDirectionDegrees,WindSpeedMPH,WindSpeedGustMPH,Humidity,HourlyPrecipIn,Conditions,Clouds,dailyrainin,SoftwareType,DateUTC
2013-06-02 00:01:00,80.1,70.7,29.73,SSW,203,1.1,3.6,73,0.00,,,0.00,WUHU216HW,2013-06-02 05:01:00,
2013-06-02 00:06:00,79.9,70.5,29.73,South,180,1.3,2.7,73,0.00,,,0.00,WUHU216HW,2013-06-02 05:06:00,
2013-06-02 00:11:00,79.9,70.5,29.74,South,180,0.9,3.4,73,0.00,,,0.00,WUHU216HW,2013-06-02 05:11:00,
2013-06-02 00:16:00,79.9,70.5,29.73,SSE,158,0.9,3.4,73,0.00,,,0.00,WUHU216HW,2013-06-02 05:16:00,
2013-06-02 00:21:00,79.7,70.3,29.73,ESE,113,1.6,3.4,73,0.00,,,0.00,WUHU216HW,2013-06-02 05:21:00,
2013-06-02 00:26:00,79.6,70.1,29.74,South,180,0.0,3.4,73,0.00,,,0.00,WUHU216HW,2013-06-02 05:26:00,
2013-06-02 00:31:00,79.4,69.9,29.75,WSW,248,0.9,4.3,73,0.00,,,0.00,WUHU216HW,2013-06-02 05:31:00,
2013-06-02 00:36:00,79.2,70.2,29.75,WSW,248,0.0,4.3,74,0.00,,,0.00,WUHU216HW,2013-06-02 05:36:00,
2013-06-02 00:41:00,79.2,70.2,29.75,WSW,248,0.2,2.2,74,0.00,,,0.00,WUHU216HW,2013-06-02 05:41:00,
2013-06-02 00:46:00,79.0,70.0,29.75,WSW,248,0.9,0.9,74,0.00,,,0.00,WUHU216HW,2013-06-02 05:46:00,
2013-06-02 00:51:00,78.8,70.2,29.76,WSW,248,0.0,1.1,75,0.00,,,0.00,WUHU216HW,2013-06-02 05:51:00,
2013-06-02 00:56:00,78.8,70.2,29.75,WSW,248,0.0,1.1,75,0.00,,,0.00,WUHU216HW,2013-06-02 05:56:00,
2013-06-02 01:01:00,78.8,70.2,29.76,NNW,338,0.2,1.1,75,0.00,,,0.00,WUHU216HW,2013-06-02 06:01:00,
2013-06-02 01:06:00,78.8,70.2,29.75,NNW,338,0.0,1.1,75,0.00,,,0.00,WUHU216HW,2013-06-02 06:06:00,
2013-06-02 01:11:00,78.7,70.0,29.76,NNW,338,0.0,1.1,75,0.00,,,0.00,WUHU216HW,2013-06-02 06:11:00,
2013-06-02 01:16:00,78.7,70.4,29.75,NNW,338,0.7,1.1,76,0.00,,,0.00,WUHU216HW,2013-06-02 06:16:00,
2013-06-02 01:21:00,78.7,70.4,29.75,NNW,338,0.4,1.6,76,0.00,,,0.00,WUHU216HW,2013-06-02 06:21:00,
2013-06-02 01:26:00,78.7,70.4,29.75,ENE,68,1.1,2.5,76,0.00,,,0.00,WUHU216HW,2013-06-02 06:26:00,
2013-06-02 01:31:00,78.5,70.7,29.74,ENE,68,2.0,2.5,77,0.00,,,0.00,WUHU216HW,2013-06-02 06:31:00,
2013-06-02 01:36:00,78.3,70.8,29.74,NE,45,1.3,2.5,78,0.00,,,0.00,WUHU216HW,2013-06-02 06:36:00,
2013-06-02 01:41:00,77.9,70.5,29.74,NE,45,1.3,2.0,78,0.00,,,0.00,WUHU216HW,2013-06-02 06:41:00,
2013-06-02 01:46:00,77.6,70.1,29.75,NNE,23,1.1,2.2,78,0.00,,,0.00,WUHU216HW,2013-06-02 06:46:00,
2013-06-02 01:51:00,77.4,70.7,29.76,North,0,1.6,5.8,80,0.00,,,0.00,WUHU216HW,2013-06-02 06:51:00,
2013-06-02 01:56:00,77.2,70.6,29.76,North,0,0.7,5.8,80,0.00,,,0.00,WUHU216HW,2013-06-02 06:56:00,
2013-06-02 02:01:00,77.2,70.6,29.76,NE,45,0.7,3.6,80,0.00,,,0.00,WUHU216HW,2013-06-02 07:01:00,
2013-06-02 02:06:00,77.0,70.4,29.76,North,0,0.4,3.4,80,0.00,,,0.00,WUHU216HW,2013-06-02 07:06:00,
2013-06-02 02:11:00,77.0,70.7,29.76,NE,45,0.2,2.2,81,0.00,,,0.00,WUHU216HW,2013-06-02 07:11:00,
2013-06-02 02:16:00,76.9,70.6,29.76,NE,45,2.7,2.7,81,0.00,,,0.00,WUHU216HW,2013-06-02 07:16:00,
2013-06-02 02:21:00,76.7,70.4,29.76,NE,45,4.7,4.9,81,0.00,,,0.00,WUHU216HW,2013-06-02 07:21:00,
2013-06-02 02:26:00,76.7,70.4,29.76,North,0,0.4,5.6,81,0.00,,,0.00,WUHU216HW,2013-06-02 07:26:00,
2013-06-02 02:31:00,76.5,70.3,29.76,NNW,338,1.1,5.6,81,0.00,,,0.00,WUHU216HW,2013-06-02 07:31:00,
2013-06-02 02:36:00,76.3,70.1,29.76,SE,135,2.9,4.3,81,0.00,,,0.00,WUHU216HW,2013-06-02 07:36:00,
2013-06-02 02:41:00,76.1,69.9,29.76,NW,315,0.4,4.7,81,0.00,,,0.00,WUHU216HW,2013-06-02 07:41:00,
2013-06-02 02:46:00,76.0,69.8,29.77,ENE,68,3.8,4.7,81,0.00,,,0.00,WUHU216HW,2013-06-02 07:46:00,
2013-06-02 02:51:00,75.6,69.8,29.77,North,0,1.1,3.8,82,0.00,,,0.00,WUHU216HW,2013-06-02 07:51:00,
2013-06-02 02:56:00,75.4,69.3,29.77,East,90,4.0,4.9,81,0.00,,,0.00,WUHU216HW,2013-06-02 07:56:00,
2013-06-02 03:01:00,75.2,69.1,29.77,ESE,113,2.7,4.9,81,0.00,,,0.00,WUHU216HW,2013-06-02 08:01:00,
2013-06-02 03:06:00,75.1,69.0,29.77,NNE,23,7.6,7.6,81,0.00,,,0.00,WUHU216HW,2013-06-02 08:06:00,
2013-06-02 03:11:00,74.7,67.9,29.78,East,90,4.7,10.5,79,0.00,,,0.00,WUHU216HW,2013-06-02 08:11:00,
2013-06-02 03:16:00,74.5,67.7,29.79,North,0,1.1,10.5,79,0.00,,,0.00,WUHU216HW,2013-06-02 08:16:00,
2013-06-02 03:21:00,74.3,67.5,29.78,ENE,68,1.8,6.9,79,0.00,,,0.00,WUHU216HW,2013-06-02 08:21:00,
2013-06-02 03:26:00,74.0,67.2,29.77,ENE,68,4.7,6.9,79,0.00,,,0.00,WUHU216HW,2013-06-02 08:26:00,
2013-06-02 03:31:00,73.6,67.1,29.77,East,90,4.7,6.9,80,0.00,,,0.00,WUHU216HW,2013-06-02 08:31:00,
2013-06-02 03:36:00,73.1,67.0,29.78,ESE,113,6.5,8.7,81,0.00,,,0.00,WUHU216HW,2013-06-02 08:36:00,
2013-06-02 03:41:00,72.7,67.0,29.79,ENE,68,5.1,8.7,82,0.00,,,0.00,WUHU216HW,2013-06-02 08:41:00,
2013-06-02 03:46:00,72.5,66.8,29.79,ENE,68,5.6,5.6,82,0.00,,,0.00,WUHU216HW,2013-06-02 08:46:00,
2013-06-02 03:51:00,72.4,66.6,29.79,NNE,23,6.3,6.3,82,0.00,,,0.00,WUHU216HW,2013-06-02 08:51:00,
2013-06-02 03:56:00,72.0,66.5,29.78,NNE,23,4.7,7.4,83,0.00,,,0.00,WUHU216HW,2013-06-02 08:56:00,
2013-06-02 04:01:00,71.8,66.1,29.77,NE,45,6.7,7.4,82,0.00,,,0.00,WUHU216HW,2013-06-02 09:01:00,
2013-06-02 04:06:00,72.0,65.5,29.78,ENE,68,3.8,6.7,80,0.00,,,0.00,WUHU216HW,2013-06-02 09:06:00,
2013-06-02 04:11:00,72.0,64.8,29.77,ENE,68,4.7,5.6,78,0.00,,,0.00,WUHU216HW,2013-06-02 09:11:00,
2013-06-02 04:16:00,72.0,64.0,29.77,NE,45,8.9,8.9,76,0.00,,,0.00,WUHU216HW,2013-06-02 09:16:00,
2013-06-02 04:21:00,72.4,64.0,29.78,NNE,23,6.9,8.9,75,0.00,,,0.00,WUHU216HW,2013-06-02 09:21:00,
2013-06-02 04:26:00,72.4,63.3,29.78,ENE,68,4.5,11.4,73,0.00,,,0.00,WUHU216HW,2013-06-02 09:26:00,
2013-06-02 04:31:00,72.4,63.3,29.78,NE,45,2.5,11.4,73,0.00,,,0.00,WUHU216HW,2013-06-02 09:31:00,
2013-06-02 04:36:00,72.2,62.6,29.79,ENE,68,5.1,8.3,72,0.00,,,0.00,WUHU216HW,2013-06-02 09:36:00,
2013-06-02 04:41:00,72.2,62.3,29.79,ENE,68,3.1,6.5,71,0.00,,,0.00,WUHU216HW,2013-06-02 09:41:00,
2013-06-02 04:46:00,71.8,61.6,29.79,East,90,4.3,6.3,70,0.00,,,0.00,WUHU216HW,2013-06-02 09:46:00,
2013-06-02 04:51:00,71.6,61.4,29.79,SE,135,3.4,7.6,70,0.00,,,0.00,WUHU216HW,2013-06-02 09:51:00,
2013-06-02 04:56:00,71.5,61.6,29.79,East,90,1.8,7.6,71,0.00,,,0.00,WUHU216HW,2013-06-02 09:56:00,
2013-06-02 05:01:00,71.3,61.4,29.79,ENE,68,6.9,6.9,71,0.00,,,0.00,WUHU216HW,2013-06-02 10:01:00,
2013-06-02 05:06:00,70.9,60.7,29.79,NNE,23,6.0,7.6,70,0.00,,,0.00,WUHU216HW,2013-06-02 10:06:00,
2013-06-02 05:11:00,70.9,61.0,29.79,SE,135,3.1,7.6,71,0.00,,,0.00,WUHU216HW,2013-06-02 10:11:00,
2013-06-02 05:16:00,70.7,60.8,29.79,ENE,68,4.3,5.8,71,0.00,,,0.00,WUHU216HW,2013-06-02 10:16:00,
2013-06-02 05:21:00,70.6,61.0,29.80,East,90,2.7,6.5,72,0.00,,,0.00,WUHU216HW,2013-06-02 10:21:00,
2013-06-02 05:26:00,70.6,61.0,29.79,SE,135,3.4,6.5,72,0.00,,,0.00,WUHU216HW,2013-06-02 10:26:00,
2013-06-02 05:31:00,70.6,61.5,29.79,NE,45,2.5,4.7,73,0.00,,,0.00,WUHU216HW,2013-06-02 10:31:00,
2013-06-02 05:36:00,70.4,61.3,29.80,East,90,0.9,4.3,73,0.00,,,0.00,WUHU216HW,2013-06-02 10:36:00,
2013-06-02 05:41:00,70.2,61.5,29.80,ESE,113,3.4,4.5,74,0.00,,,0.00,WUHU216HW,2013-06-02 10:41:00,
2013-06-02 05:46:00,70.2,61.5,29.81,NE,45,2.9,4.5,74,0.00,,,0.00,WUHU216HW,2013-06-02 10:46:00,
2013-06-02 05:51:00,70.0,61.7,29.81,ENE,68,1.1,6.0,75,0.00,,,0.00,WUHU216HW,2013-06-02 10:51:00,
2013-06-02 05:56:00,70.0,61.7,29.81,ENE,68,3.6,6.5,75,0.00,,,0.00,WUHU216HW,2013-06-02 10:56:00,
2013-06-02 06:01:00,69.8,61.5,29.81,East,90,2.2,6.7,75,0.00,,,0.00,WUHU216HW,2013-06-02 11:01:00,
2013-06-02 06:06:00,69.8,61.8,29.82,SE,135,1.6,6.7,76,0.00,,,0.00,WUHU216HW,2013-06-02 11:06:00,
2013-06-02 06:11:00,69.3,61.7,29.83,NE,45,1.1,5.1,77,0.01,,,0.01,WUHU216HW,2013-06-02 11:11:00,
2013-06-02 06:16:00,68.4,61.7,29.84,North,0,0.0,4.3,79,0.04,,,0.03,WUHU216HW,2013-06-02 11:16:00,
2013-06-02 06:21:00,67.7,62.0,29.82,ESE,113,2.5,4.3,82,0.07,,,0.06,WUHU216HW,2013-06-02 11:21:00,
2013-06-02 06:26:00,67.0,61.9,29.82,SE,135,0.0,3.1,84,0.07,,,0.07,WUHU216HW,2013-06-02 11:26:00,
2013-06-02 06:31:00,66.6,61.6,29.83,SE,135,0.0,1.8,84,0.07,,,0.07,WUHU216HW,2013-06-02 11:31:00,
2013-06-02 06:36:00,66.6,61.9,29.82,ENE,68,1.3,2.5,85,0.07,,,0.07,WUHU216HW,2013-06-02 11:36:00,
2013-06-02 06:41:00,66.2,62.2,29.82,East,90,1.8,3.1,87,0.08,,,0.07,WUHU216HW,2013-06-02 11:41:00,
2013-06-02 06:46:00,66.1,62.0,29.81,SE,135,1.1,3.1,87,0.08,,,0.08,WUHU216HW,2013-06-02 11:46:00,
2013-06-02 06:51:00,65.9,61.8,29.81,East,90,0.4,1.1,87,0.08,,,0.08,WUHU216HW,2013-06-02 11:51:00,
2013-06-02 06:56:00,65.9,62.2,29.81,East,90,2.5,3.8,88,0.08,,,0.08,WUHU216HW,2013-06-02 11:56:00,
2013-06-02 07:02:00,65.7,62.0,29.81,East,90,2.7,3.8,88,0.08,,,0.08,WUHU216HW,2013-06-02 12:02:00,
2013-06-02 07:06:00,65.7,62.4,29.81,ESE,113,0.7,3.6,89,0.08,,,0.08,WUHU216HW,2013-06-02 12:06:00,
2013-06-02 07:11:00,65.5,61.8,29.81,ENE,68,0.4,2.7,88,0.06,,,0.08,WUHU216HW,2013-06-02 12:11:00,
2013-06-02 07:17:00,65.7,62.0,29.81,ENE,68,1.1,2.7,88,0.02,,,0.08,WUHU216HW,2013-06-02 12:17:00,
2013-06-02 07:22:00,65.5,62.2,29.82,ENE,68,0.7,3.1,89,0.01,,,0.08,WUHU216HW,2013-06-02 12:22:00,
2013-06-02 07:27:00,65.5,62.2,29.82,East,90,1.8,3.8,89,0.01,,,0.08,WUHU216HW,2013-06-02 12:27:00,
2013-06-02 07:31:00,65.7,62.4,29.82,ENE,68,3.6,3.8,89,0.01,,,0.08,WUHU216HW,2013-06-02 12:31:00,
2013-06-02 07:36:00,65.7,62.4,29.82,East,90,1.1,3.6,89,0.01,,,0.08,WUHU216HW,2013-06-02 12:36:00,
2013-06-02 07:42:00,65.7,62.7,29.82,ENE,68,1.8,2.5,90,0.00,,,0.08,WUHU216HW,2013-06-02 12:42:00,
2013-06-02 07:46:00,65.9,63.2,29.83,ENE,68,2.5,2.5,91,0.00,,,0.08,WUHU216HW,2013-06-02 12:46:00,
2013-06-02 07:52:00,65.9,63.2,29.82,ESE,113,1.3,2.7,91,0.00,,,0.08,WUHU216HW,2013-06-02 12:52:00,
2013-06-02 07:57:00,65.9,63.2,29.83,ESE,113,0.7,2.7,91,0.00,,,0.08,WUHU216HW,2013-06-02 12:57:00,
2013-06-02 08:02:00,66.1,63.4,29.83,ENE,68,0.4,2.5,91,0.00,,,0.08,WUHU216HW,2013-06-02 13:02:00,
2013-06-02 08:07:00,66.2,63.5,29.83,ENE,68,1.3,2.5,91,0.00,,,0.08,WUHU216HW,2013-06-02 13:07:00,
2013-06-02 08:12:00,66.4,63.6,29.83,ENE,68,0.0,1.8,91,0.00,,,0.08,WUHU216HW,2013-06-02 13:12:00,
2013-06-02 08:17:00,66.6,63.8,29.84,ESE,113,1.1,1.8,91,0.00,,,0.08,WUHU216HW,2013-06-02 13:17:00,
2013-06-02 08:22:00,66.8,64.0,29.84,ESE,113,1.6,2.0,91,0.00,,,0.08,WUHU216HW,2013-06-02 13:22:00,
2013-06-02 08:27:00,66.8,64.0,29.84,ENE,68,3.4,3.4,91,0.00,,,0.08,WUHU216HW,2013-06-02 13:27:00,
2013-06-02 08:32:00,67.0,64.2,29.84,ENE,68,1.8,3.4,91,0.00,,,0.08,WUHU216HW,2013-06-02 13:32:00,
2013-06-02 08:37:00,67.3,64.5,29.84,ENE,68,1.8,4.0,91,0.00,,,0.08,WUHU216HW,2013-06-02 13:37:00,
2013-06-02 08:42:00,67.5,64.7,29.85,NE,45,3.4,4.0,91,0.00,,,0.08,WUHU216HW,2013-06-02 13:42:00,
2013-06-02 08:47:00,67.7,64.9,29.85,East,90,0.4,4.5,91,0.00,,,0.08,WUHU216HW,2013-06-02 13:47:00,
2013-06-02 08:52:00,67.9,65.1,29.86,East,90,1.6,4.5,91,0.00,,,0.08,WUHU216HW,2013-06-02 13:52:00,
2013-06-02 08:57:00,67.7,64.9,29.86,NE,45,2.7,3.1,91,0.00,,,0.08,WUHU216HW,2013-06-02 13:57:00,
2013-06-02 09:02:00,67.9,65.1,29.86,East,90,1.6,5.4,91,0.00,,,0.08,WUHU216HW,2013-06-02 14:02:00,
2013-06-02 09:07:00,68.0,65.0,29.86,East,90,1.8,5.4,90,0.00,,,0.08,WUHU216HW,2013-06-02 14:07:00,
2013-06-02 09:12:00,68.4,65.3,29.87,ENE,68,1.1,5.1,90,0.00,,,0.08,WUHU216HW,2013-06-02 14:12:00,
2013-06-02 09:17:00,68.8,65.7,29.87,ESE,113,1.8,3.6,90,0.00,,,0.08,WUHU216HW,2013-06-02 14:17:00,
2013-06-02 09:22:00,68.8,65.7,29.87,East,90,2.9,4.0,90,0.00,,,0.08,WUHU216HW,2013-06-02 14:22:00,
2013-06-02 09:27:00,68.8,65.1,29.87,East,90,1.3,4.0,88,0.00,,,0.08,WUHU216HW,2013-06-02 14:27:00,
2013-06-02 09:32:00,69.1,65.4,29.87,ENE,68,2.9,3.6,88,0.00,,,0.08,WUHU216HW,2013-06-02 14:32:00,
2013-06-02 09:37:00,69.7,65.6,29.87,NE,45,2.9,3.4,87,0.00,,,0.08,WUHU216HW,2013-06-02 14:37:00,
2013-06-02 09:42:00,70.0,65.6,29.87,ENE,68,1.8,3.4,86,0.00,,,0.08,WUHU216HW,2013-06-02 14:42:00,
2013-06-02 09:47:00,70.9,66.5,29.88,ENE,68,3.1,4.5,86,0.00,,,0.08,WUHU216HW,2013-06-02 14:47:00,
2013-06-02 09:52:00,71.6,65.9,29.88,East,90,2.9,4.5,82,0.00,,,0.08,WUHU216HW,2013-06-02 14:52:00,
2013-06-02 09:57:00,72.2,66.4,29.88,ENE,68,4.0,4.0,82,0.00,,,0.08,WUHU216HW,2013-06-02 14:57:00,
2013-06-02 10:02:00,72.5,66.1,29.88,ESE,113,1.3,4.0,80,0.00,,,0.08,WUHU216HW,2013-06-02 15:02:00,
2013-06-02 10:07:00,73.4,67.3,29.88,East,90,1.3,3.1,81,0.00,,,0.08,WUHU216HW,2013-06-02 15:07:00,
2013-06-02 10:12:00,73.8,67.0,29.88,ENE,68,2.0,4.7,79,0.00,,,0.08,WUHU216HW,2013-06-02 15:12:00,
2013-06-02 10:17:00,74.3,66.7,29.89,SE,135,2.5,4.7,77,0.00,,,0.08,WUHU216HW,2013-06-02 15:17:00,
2013-06-02 10:22:00,74.0,65.6,29.89,East,90,1.1,3.6,75,0.00,,,0.08,WUHU216HW,2013-06-02 15:22:00,
2013-06-02 10:27:00,74.3,64.8,29.89,ENE,68,2.5,3.6,72,0.00,,,0.08,WUHU216HW,2013-06-02 15:27:00,
2013-06-02 10:32:00,73.8,64.3,29.89,ESE,113,1.8,3.6,72,0.00,,,0.08,WUHU216HW,2013-06-02 15:32:00,
2013-06-02 10:37:00,74.3,64.8,29.89,NE,45,3.8,4.7,72,0.00,,,0.08,WUHU216HW,2013-06-02 15:37:00,
2013-06-02 10:42:00,75.1,65.1,29.89,NE,45,2.0,4.7,71,0.00,,,0.08,WUHU216HW,2013-06-02 15:42:00,
2013-06-02 10:47:00,75.8,65.7,29.89,East,90,1.3,5.4,71,0.00,,,0.08,WUHU216HW,2013-06-02 15:47:00,
2013-06-02 10:52:00,76.5,65.2,29.89,ENE,68,2.7,5.4,68,0.00,,,0.08,WUHU216HW,2013-06-02 15:52:00,
2013-06-02 10:57:00,77.0,65.3,29.89,East,90,3.8,4.0,67,0.00,,,0.08,WUHU216HW,2013-06-02 15:57:00,
2013-06-02 11:02:00,77.2,64.1,29.88,NE,45,4.5,5.8,64,0.00,,,0.08,WUHU216HW,2013-06-02 16:02:00,
2013-06-02 11:07:00,76.9,62.8,29.89,ENE,68,4.3,5.8,62,0.00,,,0.08,WUHU216HW,2013-06-02 16:07:00,
2013-06-02 11:12:00,77.0,63.0,29.89,NE,45,2.9,5.1,62,0.00,,,0.08,WUHU216HW,2013-06-02 16:12:00,
2013-06-02 11:17:00,78.3,62.8,29.89,SE,135,3.6,5.1,59,0.00,,,0.08,WUHU216HW,2013-06-02 16:17:00,
2013-06-02 11:22:00,79.0,64.1,29.89,SE,135,2.7,6.5,60,0.00,,,0.08,WUHU216HW,2013-06-02 16:22:00,
2013-06-02 11:27:00,79.7,63.6,29.89,East,90,5.4,6.5,58,0.00,,,0.08,WUHU216HW,2013-06-02 16:27:00,
2013-06-02 11:32:00,79.7,62.1,29.89,ESE,113,4.0,6.5,55,0.00,,,0.08,WUHU216HW,2013-06-02 16:32:00,
2013-06-02 11:37:00,79.9,61.7,29.89,ENE,68,4.9,4.9,54,0.00,,,0.08,WUHU216HW,2013-06-02 16:37:00,
2013-06-02 11:42:00,80.3,61.6,29.88,ESE,113,1.6,8.5,53,0.00,,,0.08,WUHU216HW,2013-06-02 16:42:00,
2013-06-02 11:47:00,80.1,62.5,29.88,ESE,113,2.0,8.5,55,0.00,,,0.08,WUHU216HW,2013-06-02 16:47:00,
2013-06-02 11:52:00,80.6,61.8,29.88,ENE,68,4.7,6.9,53,0.00,,,0.08,WUHU216HW,2013-06-02 16:52:00,
2013-06-02 11:57:00,81.0,62.2,29.88,ENE,68,2.7,6.9,53,0.00,,,0.08,WUHU216HW,2013-06-02 16:57:00,
2013-06-02 12:02:00,81.4,62.0,29.87,ENE,68,4.9,5.8,52,0.00,,,0.08,WUHU216HW,2013-06-02 17:02:00,
2013-06-02 12:07:00,82.1,63.2,29.87,NNE,23,5.4,5.4,53,0.00,,,0.08,WUHU216HW,2013-06-02 17:07:00,
2013-06-02 12:12:00,82.1,62.1,29.87,NE,45,4.0,6.5,51,0.00,,,0.08,WUHU216HW,2013-06-02 17:12:00,
2013-06-02 12:17:00,82.4,61.3,29.86,NE,45,4.0,6.5,49,0.00,,,0.08,WUHU216HW,2013-06-02 17:17:00,
2013-06-02 12:22:00,82.4,61.3,29.86,ENE,68,5.4,5.4,49,0.00,,,0.08,WUHU216HW,2013-06-02 17:22:00,
2013-06-02 12:27:00,82.1,60.4,29.86,NE,45,1.8,8.3,48,0.00,,,0.08,WUHU216HW,2013-06-02 17:27:00,
2013-06-02 12:32:00,83.0,61.8,29.86,ENE,68,3.4,8.3,49,0.00,,,0.08,WUHU216HW,2013-06-02 17:32:00,
2013-06-02 12:37:00,84.4,63.9,29.86,ESE,113,2.5,5.4,50,0.00,,,0.08,WUHU216HW,2013-06-02 17:37:00,
2013-06-02 12:42:00,84.6,61.6,29.86,ENE,68,3.8,6.3,46,0.00,,,0.08,WUHU216HW,2013-06-02 17:42:00,
2013-06-02 12:47:00,85.0,62.5,29.86,ESE,113,1.1,6.3,47,0.00,,,0.08,WUHU216HW,2013-06-02 17:47:00,
2013-06-02 12:52:00,85.9,63.3,29.86,West,270,2.2,4.9,47,0.00,,,0.08,WUHU216HW,2013-06-02 17:52:00,
2013-06-02 12:57:00,86.4,63.2,29.86,East,90,2.9,6.0,46,0.00,,,0.08,WUHU216HW,2013-06-02 17:57:00,
2013-06-02 13:02:00,86.0,62.8,29.86,ENE,68,4.0,6.0,46,0.00,,,0.08,WUHU216HW,2013-06-02 18:02:00,
2013-06-02 13:07:00,85.7,63.1,29.86,SE,135,3.4,4.9,47,0.00,,,0.08,WUHU216HW,2013-06-02 18:07:00,
2013-06-02 13:12:00,84.6,60.9,29.86,ESE,113,2.9,5.6,45,0.00,,,0.08,WUHU216HW,2013-06-02 18:12:00,
2013-06-02 13:17:00,85.0,62.5,29.86,NE,45,3.8,5.6,47,0.00,,,0.08,WUHU216HW,2013-06-02 18:17:00,
2013-06-02 13:22:00,86.0,62.8,29.85,ESE,113,4.0,4.9,46,0.00,,,0.08,WUHU216HW,2013-06-02 18:22:00,
2013-06-02 13:27:00,85.7,62.5,29.85,ESE,113,3.4,4.9,46,0.00,,,0.08,WUHU216HW,2013-06-02 18:27:00,
2013-06-02 13:32:00,85.3,61.6,29.85,NNE,23,2.5,5.6,45,0.00,,,0.08,WUHU216HW,2013-06-02 18:32:00,
2013-06-02 13:37:00,85.7,61.2,29.85,NNE,23,5.8,6.3,44,0.00,,,0.08,WUHU216HW,2013-06-02 18:37:00,
2013-06-02 13:42:00,85.5,63.6,29.85,NNW,338,3.1,6.3,48,0.00,,,0.08,WUHU216HW,2013-06-02 18:42:00,
2013-06-02 13:47:00,87.1,64.5,29.84,SE,135,1.8,5.8,47,0.00,,,0.08,WUHU216HW,2013-06-02 18:47:00,
2013-06-02 13:52:00,87.8,64.4,29.84,NE,45,4.3,5.6,46,0.00,,,0.08,WUHU216HW,2013-06-02 18:52:00,
2013-06-02 13:57:00,88.4,61.1,29.84,ESE,113,4.5,5.6,40,0.00,,,0.08,WUHU216HW,2013-06-02 18:57:00,
2013-06-02 14:02:00,87.1,61.3,29.84,ENE,68,6.3,6.3,42,0.00,,,0.08,WUHU216HW,2013-06-02 19:02:00,
2013-06-02 14:07:00,87.7,63.6,29.84,NE,45,0.7,6.3,45,0.00,,,0.08,WUHU216HW,2013-06-02 19:07:00,
2013-06-02 14:12:00,88.7,62.6,29.84,SSE,158,1.3,3.4,42,0.00,,,0.08,WUHU216HW,2013-06-02 19:12:00,
2013-06-02 14:17:00,89.3,65.1,29.83,NE,45,4.0,4.0,45,0.00,,,0.08,WUHU216HW,2013-06-02 19:17:00,
2013-06-02 14:22:00,89.3,64.4,29.83,ENE,68,2.2,4.0,44,0.00,,,0.08,WUHU216HW,2013-06-02 19:22:00,
2013-06-02 14:27:00,89.1,63.6,29.83,ENE,68,3.1,4.9,43,0.00,,,0.08,WUHU216HW,2013-06-02 19:27:00,
2013-06-02 14:32:00,87.7,63.0,29.83,NE,45,4.3,6.3,44,0.00,,,0.08,WUHU216HW,2013-06-02 19:32:00,
2013-06-02 14:37:00,87.1,63.8,29.83,ENE,68,2.2,6.3,46,0.00,,,0.08,WUHU216HW,2013-06-02 19:37:00,
2013-06-02 14:42:00,87.1,61.3,29.83,ENE,68,4.3,5.4,42,0.00,,,0.08,WUHU216HW,2013-06-02 19:42:00,
2013-06-02 14:47:00,85.7,60.6,29.82,ENE,68,3.4,4.7,43,0.00,,,0.08,WUHU216HW,2013-06-02 19:47:00,
2013-06-02 14:52:00,85.3,62.2,29.82,NW,315,2.5,4.7,46,0.00,,,0.08,WUHU216HW,2013-06-02 19:52:00,
2013-06-02 14:57:00,85.9,60.8,29.82,South,180,2.2,4.7,43,0.00,,,0.08,WUHU216HW,2013-06-02 19:57:00,
2013-06-02 15:02:00,86.2,63.0,29.82,North,0,3.4,3.4,46,0.00,,,0.08,WUHU216HW,2013-06-02 20:02:00,
2013-06-02 15:07:00,86.6,60.8,29.81,East,90,3.4,3.4,42,0.00,,,0.08,WUHU216HW,2013-06-02 20:07:00,
2013-06-02 15:12:00,86.6,61.4,29.81,East,90,2.9,4.0,43,0.00,,,0.08,WUHU216HW,2013-06-02 20:12:00,
2013-06-02 15:17:00,85.9,58.9,29.81,ESE,113,2.0,4.0,40,0.00,,,0.08,WUHU216HW,2013-06-02 20:17:00,
2013-06-02 15:22:00,85.5,56.2,29.81,ENE,68,3.4,5.1,37,0.00,,,0.08,WUHU216HW,2013-06-02 20:22:00,
2013-06-02 15:27:00,85.3,58.4,29.81,ENE,68,2.7,5.1,40,0.00,,,0.08,WUHU216HW,2013-06-02 20:27:00,
2013-06-02 15:32:00,85.5,58.6,29.80,SE,135,4.0,5.4,40,0.00,,,0.08,WUHU216HW,2013-06-02 20:32:00,
2013-06-02 15:37:00,85.7,59.3,29.80,ESE,113,3.6,5.4,41,0.00,,,0.08,WUHU216HW,2013-06-02 20:37:00,
2013-06-02 15:42:00,85.3,59.7,29.80,ENE,68,5.6,7.4,42,0.00,,,0.08,WUHU216HW,2013-06-02 20:42:00,
2013-06-02 15:47:00,85.3,59.1,29.79,ENE,68,4.5,7.4,41,0.00,,,0.08,WUHU216HW,2013-06-02 20:47:00,
2013-06-02 15:52:00,85.7,59.3,29.79,NW,315,3.1,4.5,41,0.00,,,0.08,WUHU216HW,2013-06-02 20:52:00,
2013-06-02 15:57:00,85.3,59.1,29.79,North,0,3.6,5.6,41,0.00,,,0.08,WUHU216HW,2013-06-02 20:57:00,
2013-06-02 16:02:00,85.7,59.9,29.79,East,90,1.6,5.6,42,0.00,,,0.08,WUHU216HW,2013-06-02 21:02:00,
2013-06-02 16:07:00,85.5,59.2,29.79,East,90,1.8,4.5,41,0.00,,,0.08,WUHU216HW,2013-06-02 21:07:00,
2013-06-02 16:12:00,85.1,60.8,29.79,ESE,113,2.2,4.5,44,0.00,,,0.08,WUHU216HW,2013-06-02 21:12:00,
2013-06-02 16:17:00,85.3,62.8,29.79,NE,45,3.6,4.3,47,0.00,,,0.08,WUHU216HW,2013-06-02 21:17:00,
2013-06-02 16:22:00,85.3,61.6,29.78,North,0,0.4,3.6,45,0.00,,,0.08,WUHU216HW,2013-06-02 21:22:00,
2013-06-02 16:27:00,85.3,61.6,29.78,East,90,1.8,3.1,45,0.00,,,0.08,WUHU216HW,2013-06-02 21:27:00,
2013-06-02 16:32:00,85.7,61.8,29.78,ENE,68,1.1,4.0,45,0.00,,,0.08,WUHU216HW,2013-06-02 21:32:00,
2013-06-02 16:37:00,85.3,61.6,29.77,ENE,68,5.6,5.6,45,0.00,,,0.08,WUHU216HW,2013-06-02 21:37:00,
2013-06-02 16:42:00,84.8,61.0,29.77,NW,315,2.2,5.6,45,0.00,,,0.08,WUHU216HW,2013-06-02 21:42:00,
2013-06-02 16:47:00,84.8,61.0,29.77,East,90,2.2,7.2,45,0.00,,,0.08,WUHU216HW,2013-06-02 21:47:00,
2013-06-02 16:52:00,84.6,60.3,29.77,NE,45,3.8,7.2,44,0.00,,,0.08,WUHU216HW,2013-06-02 21:52:00,
2013-06-02 16:57:00,84.6,61.6,29.77,SSW,203,0.9,4.7,46,0.00,,,0.08,WUHU216HW,2013-06-02 21:57:00,
2013-06-02 17:02:00,84.8,61.7,29.77,NE,45,1.3,3.1,46,0.00,,,0.08,WUHU216HW,2013-06-02 22:02:00,
2013-06-02 17:07:00,84.8,62.3,29.76,ENE,68,2.2,2.5,47,0.00,,,0.08,WUHU216HW,2013-06-02 22:07:00,
2013-06-02 17:12:00,84.8,62.3,29.76,NE,45,2.9,2.9,47,0.00,,,0.08,WUHU216HW,2013-06-02 22:12:00,
2013-06-02 17:17:00,84.6,62.2,29.76,WNW,293,1.1,2.9,47,0.00,,,0.08,WUHU216HW,2013-06-02 22:17:00,
2013-06-02 17:22:00,84.8,62.3,29.76,East,90,2.7,2.7,47,0.00,,,0.08,WUHU216HW,2013-06-02 22:22:00,
2013-06-02 17:27:00,84.6,62.2,29.76,SSE,158,2.5,2.7,47,0.00,,,0.08,WUHU216HW,2013-06-02 22:27:00,
2013-06-02 17:32:00,84.4,62.7,29.75,NW,315,1.3,2.7,48,0.00,,,0.08,WUHU216HW,2013-06-02 22:32:00,
2013-06-02 17:37:00,84.6,64.1,29.76,North,0,1.1,2.2,50,0.00,,,0.08,WUHU216HW,2013-06-02 22:37:00,
2013-06-02 17:42:00,84.6,62.2,29.75,ENE,68,5.1,5.1,47,0.00,,,0.08,WUHU216HW,2013-06-02 22:42:00,
2013-06-02 17:47:00,84.2,62.5,29.75,ESE,113,1.8,5.1,48,0.00,,,0.08,WUHU216HW,2013-06-02 22:47:00,
2013-06-02 17:52:00,84.1,62.9,29.75,SE,135,2.2,3.4,49,0.00,,,0.08,WUHU216HW,2013-06-02 22:52:00,
2013-06-02 17:57:00,84.1,62.3,29.74,SE,135,0.0,2.7,48,0.00,,,0.08,WUHU216HW,2013-06-02 22:57:00,
2013-06-02 18:02:00,84.1,62.9,29.74,NE,45,0.4,2.7,49,0.00,,,0.08,WUHU216HW,2013-06-02 23:02:00,
2013-06-02 18:07:00,84.1,62.9,29.74,ENE,68,2.7,2.7,49,0.00,,,0.08,WUHU216HW,2013-06-02 23:07:00,
2013-06-02 18:12:00,83.9,62.7,29.74,NE,45,1.3,4.3,49,0.00,,,0.08,WUHU216HW,2013-06-02 23:12:00,
2013-06-02 18:17:00,83.7,63.2,29.74,NNE,23,2.0,4.3,50,0.00,,,0.08,WUHU216HW,2013-06-02 23:17:00,
2013-06-02 18:22:00,83.9,63.4,29.74,WSW,248,0.4,2.2,50,0.00,,,0.08,WUHU216HW,2013-06-02 23:22:00,
2013-06-02 18:27:00,83.7,63.2,29.74,NE,45,3.6,3.6,50,0.00,,,0.08,WUHU216HW,2013-06-02 23:27:00,
2013-06-02 18:32:00,83.5,62.4,29.74,North,0,0.9,3.6,49,0.00,,,0.08,WUHU216HW,2013-06-02 23:32:00,
2013-06-02 18:37:00,83.3,62.8,29.74,NE,45,1.8,2.5,50,0.00,,,0.08,WUHU216HW,2013-06-02 23:37:00,
2013-06-02 18:42:00,83.2,62.6,29.74,NE,45,0.9,3.4,50,0.00,,,0.08,WUHU216HW,2013-06-02 23:42:00,
2013-06-02 18:47:00,83.2,62.0,29.74,ENE,68,4.7,4.7,49,0.00,,,0.08,WUHU216HW,2013-06-02 23:47:00,
2013-06-02 18:52:00,83.2,62.6,29.74,North,0,3.6,4.7,50,0.00,,,0.08,WUHU216HW,2013-06-02 23:52:00,
2013-06-02 18:57:00,83.0,62.5,29.74,ENE,68,0.0,3.6,50,0.00,,,0.08,WUHU216HW,2013-06-02 23:57:00,
2013-06-02 19:02:00,83.0,62.5,29.74,ESE,113,1.8,2.7,50,0.00,,,0.08,WUHU216HW,2013-06-03 00:02:00,
2013-06-02 19:07:00,82.8,62.3,29.74,ENE,68,4.5,4.5,50,0.00,,,0.08,WUHU216HW,2013-06-03 00:07:00,
2013-06-02 19:12:00,82.6,61.5,29.74,ENE,68,2.5,4.5,49,0.00,,,0.08,WUHU216HW,2013-06-03 00:12:00,
2013-06-02 19:17:00,82.4,61.3,29.74,ENE,68,4.3,4.3,49,0.00,,,0.08,WUHU216HW,2013-06-03 00:17:00,
2013-06-02 19:22:00,82.3,61.1,29.74,NNE,23,2.5,4.3,49,0.00,,,0.08,WUHU216HW,2013-06-03 00:22:00,
2013-06-02 19:27:00,81.9,60.9,29.73,NE,45,3.8,3.8,49,0.00,,,0.08,WUHU216HW,2013-06-03 00:27:00,
2013-06-02 19:32:00,81.7,60.7,29.74,East,90,1.6,3.8,49,0.00,,,0.08,WUHU216HW,2013-06-03 00:32:00,
2013-06-02 19:37:00,81.4,60.3,29.73,East,90,1.6,2.5,49,0.00,,,0.08,WUHU216HW,2013-06-03 00:37:00,
2013-06-02 19:42:00,81.0,60.7,29.74,ENE,68,1.3,2.2,50,0.00,,,0.08,WUHU216HW,2013-06-03 00:42:00,
2013-06-02 19:47:00,80.8,61.0,29.74,ENE,68,0.0,2.0,51,0.00,,,0.08,WUHU216HW,2013-06-03 00:47:00,
2013-06-02 19:52:00,80.5,60.7,29.74,ENE,68,0.0,1.1,51,0.00,,,0.08,WUHU216HW,2013-06-03 00:52:00,
2013-06-02 19:57:00,79.9,60.7,29.74,NE,45,0.4,1.1,52,0.00,,,0.08,WUHU216HW,2013-06-03 00:57:00,
2013-06-02 20:02:00,79.6,60.9,29.74,NE,45,0.0,1.1,53,0.00,,,0.08,WUHU216HW,2013-06-03 01:02:00,
2013-06-02 20:07:00,79.0,60.4,29.74,NE,45,0.0,0.0,53,0.00,,,0.08,WUHU216HW,2013-06-03 01:07:00,
2013-06-02 20:12:00,78.5,60.4,29.75,NE,45,0.0,0.0,54,0.00,,,0.08,WUHU216HW,2013-06-03 01:12:00,
2013-06-02 20:17:00,77.6,60.6,29.74,NE,45,0.0,0.0,56,0.00,,,0.08,WUHU216HW,2013-06-03 01:17:00,
2013-06-02 20:22:00,77.0,60.6,29.74,NE,45,0.0,0.0,57,0.00,,,0.08,WUHU216HW,2013-06-03 01:22:00,
2013-06-02 20:27:00,76.3,59.9,29.74,NE,45,0.0,0.0,57,0.00,,,0.08,WUHU216HW,2013-06-03 01:27:00,
2013-06-02 20:32:00,75.4,60.1,29.74,NE,45,0.0,0.0,59,0.00,,,0.08,WUHU216HW,2013-06-03 01:32:00,
2013-06-02 20:37:00,74.7,59.9,29.74,NE,45,0.0,0.0,60,0.00,,,0.08,WUHU216HW,2013-06-03 01:37:00,
2013-06-02 20:42:00,74.0,59.7,29.74,NE,45,0.0,0.0,61,0.00,,,0.08,WUHU216HW,2013-06-03 01:42:00,
2013-06-02 20:47:00,73.4,59.6,29.74,NE,45,0.0,0.0,62,0.00,,,0.08,WUHU216HW,2013-06-03 01:47:00,
2013-06-02 20:52:00,72.9,59.5,29.74,NE,45,0.0,0.0,63,0.00,,,0.08,WUHU216HW,2013-06-03 01:52:00,
2013-06-02 20:57:00,72.4,60.0,29.74,NE,45,0.2,0.2,65,0.00,,,0.08,WUHU216HW,2013-06-03 01:57:00,
2013-06-02 21:02:00,71.6,59.7,29.74,NE,45,0.0,0.2,66,0.00,,,0.08,WUHU216HW,2013-06-03 02:02:00,
2013-06-02 21:07:00,71.1,59.1,29.74,NE,45,0.0,0.0,66,0.00,,,0.08,WUHU216HW,2013-06-03 02:07:00,
2013-06-02 21:12:00,70.7,59.2,29.74,NE,45,0.0,0.0,67,0.00,,,0.08,WUHU216HW,2013-06-03 02:12:00,
2013-06-02 21:17:00,70.2,59.1,29.74,NE,45,0.0,0.0,68,0.00,,,0.08,WUHU216HW,2013-06-03 02:17:00,
2013-06-02 21:22:00,69.8,59.1,29.74,NE,45,0.0,0.0,69,0.00,,,0.08,WUHU216HW,2013-06-03 02:22:00,
2013-06-02 21:27:00,69.5,59.2,29.74,NE,45,0.0,0.0,70,0.00,,,0.08,WUHU216HW,2013-06-03 02:27:00,
2013-06-02 21:32:00,69.1,59.3,29.74,NE,45,0.0,0.0,71,0.00,,,0.08,WUHU216HW,2013-06-03 02:32:00,
2013-06-02 21:37:00,68.6,58.9,29.74,NE,45,0.0,0.0,71,0.00,,,0.08,WUHU216HW,2013-06-03 02:37:00,
2013-06-02 21:42:00,68.2,58.9,29.74,NE,45,0.0,0.0,72,0.00,,,0.08,WUHU216HW,2013-06-03 02:42:00,
2013-06-02 21:47:00,68.0,59.1,29.74,NE,45,0.0,0.0,73,0.00,,,0.08,WUHU216HW,2013-06-03 02:47:00,
2013-06-02 21:52:00,67.7,59.1,29.74,NE,45,0.0,0.0,74,0.00,,,0.08,WUHU216HW,2013-06-03 02:52:00,
2013-06-02 21:57:00,67.3,58.8,29.74,NE,45,0.0,0.0,74,0.00,,,0.08,WUHU216HW,2013-06-03 02:57:00,
2013-06-02 22:02:00,67.1,58.6,29.74,NE,45,1.1,1.1,74,0.00,,,0.08,WUHU216HW,2013-06-03 03:02:00,
2013-06-02 22:07:00,66.8,58.6,29.75,NE,45,0.0,1.1,75,0.00,,,0.08,WUHU216HW,2013-06-03 03:07:00,
2013-06-02 22:12:00,66.4,58.6,29.75,NE,45,0.0,0.9,76,0.00,,,0.08,WUHU216HW,2013-06-03 03:12:00,
2013-06-02 22:17:00,66.2,58.4,29.75,NE,45,0.0,0.0,76,0.00,,,0.08,WUHU216HW,2013-06-03 03:17:00,
2013-06-02 22:22:00,65.9,58.5,29.75,NE,45,0.0,0.0,77,0.00,,,0.08,WUHU216HW,2013-06-03 03:22:00,
2013-06-02 22:27:00,65.5,58.2,29.75,NE,45,0.0,0.0,77,0.00,,,0.08,WUHU216HW,2013-06-03 03:27:00,
2013-06-02 22:32:00,65.2,58.2,29.75,NE,45,0.0,0.0,78,0.00,,,0.08,WUHU216HW,2013-06-03 03:32:00,
2013-06-02 22:37:00,65.0,58.0,29.75,NE,45,0.0,0.0,78,0.00,,,0.08,WUHU216HW,2013-06-03 03:37:00,
2013-06-02 22:42:00,64.8,57.8,29.75,NE,45,0.0,1.3,78,0.00,,,0.08,WUHU216HW,2013-06-03 03:42:00,
2013-06-02 22:47:00,64.6,58.3,29.75,NE,45,0.0,1.3,80,0.00,,,0.08,WUHU216HW,2013-06-03 03:47:00,
2013-06-02 22:52:00,64.4,58.1,29.75,NE,45,0.0,0.7,80,0.00,,,0.08,WUHU216HW,2013-06-03 03:52:00,
2013-06-02 22:57:00,64.1,57.4,29.76,NE,45,0.0,1.1,79,0.00,,,0.08,WUHU216HW,2013-06-03 03:57:00,
2013-06-02 23:01:00,63.9,57.2,29.76,NE,45,0.0,1.1,79,0.00,,,0.08,WUHU216HW,2013-06-03 04:01:00,
2013-06-02 23:06:00,63.7,57.4,29.76,NE,45,0.0,0.4,80,0.00,,,0.08,WUHU216HW,2013-06-03 04:06:00,
2013-06-02 23:12:00,63.4,57.1,29.76,NE,45,0.0,0.0,80,0.00,,,0.08,WUHU216HW,2013-06-03 04:12:00,
2013-06-02 23:17:00,63.4,57.4,29.76,NE,45,0.7,1.1,81,0.00,,,0.08,WUHU216HW,2013-06-03 04:17:00,
2013-06-02 23:22:00,63.2,57.3,29.77,NE,45,0.2,1.1,81,0.00,,,0.08,WUHU216HW,2013-06-03 04:22:00,
2013-06-02 23:27:00,63.0,57.1,29.77,NE,45,0.2,1.1,81,0.00,,,0.08,WUHU216HW,2013-06-03 04:27:00,
2013-06-02 23:32:00,63.0,57.4,29.77,NW,315,1.1,1.6,82,0.00,,,0.08,WUHU216HW,2013-06-03 04:32:00,
2013-06-02 23:37:00,62.8,57.3,29.77,NW,315,1.1,1.6,82,0.00,,,0.08,WUHU216HW,2013-06-03 04:37:00,
2013-06-02 23:42:00,62.6,57.3,29.77,NW,315,0.4,1.1,83,0.00,,,0.08,WUHU216HW,2013-06-03 04:42:00,
2013-06-02 23:47:00,62.5,57.3,29.78,WSW,248,2.7,2.7,83,0.00,,,0.08,WUHU216HW,2013-06-03 04:47:00,
2013-06-02 23:52:00,62.5,57.3,29.78,WSW,248,0.7,2.7,83,0.00,,,0.08,WUHU216HW,2013-06-03 04:52:00,
2013-06-02 23:57:00,62.3,57.1,29.78,WSW,248,0.2,2.5,83,0.00,,,0.08,WUHU216HW,2013-06-03 04:57:00,